Jenkins, Missouri
Current Conditions -  °F | °C
As of 11:55 PM on Saturday 22 Nov 2014 (Local Time) from KHFJ Reporting Station
Clear Clear  
Wind Chill: 54°   Ceiling: Unl
Heat Index: 54°   Visibility: 10mi
Dew Point: 50°   Wind: 10mph
Humidity: 88%   Direction: 150°SSE
Pressure: 29.71"   Gusts: NA
Location:  36.8623°N, 93.6772°W
Report Text: KHFJ 230555Z AUTO 15009KT 10SM CLR 12/10 A2971 RMK AO2
Loading
Personal Weather Stations






























Interactive Weather Map New forecast layout! Learn more

10-Day Weather Forecast

Advertisements
Track Severe Weather on mobile